sensor_id;sensor_type;location;lat;lon;timestamp;temperature;humidity
12504;DHT22;6316;48.118;-1.690;2023-08-12T00:00:06;21.10;99.90
12504;DHT22;6316;48.118;-1.690;2023-08-12T00:02:41;21.10;99.90
12504;DHT22;6316;48.118;-1.690;2023-08-12T00:05:08;21.10;99.90
12504;DHT22;6316;48.118;-1.690;2023-08-12T00:07:34;21.10;99.90
12504;DHT22;6316;48.118;-1.690;2023-08-12T00:10:04;21.10;99.90
12504;DHT22;6316;48.118;-1.690;2023-08-12T00:12:31;21.10;99.90
12504;DHT22;6316;48.118;-1.690;2023-08-12T00:14:57;21.10;99.90
12504;DHT22;6316;48.118;-1.690;2023-08-12T00:17:23;21.10;99.90
12504;DHT22;6316;48.118;-1.690;2023-08-12T00:19:49;21.20;99.90
12504;DHT22;6316;48.118;-1.690;2023-08-12T00:22:14;21.20;99.90
12504;DHT22;6316;48.118;-1.690;2023-08-12T00:24:40;21.20;99.90
12504;DHT22;6316;48.118;-1.690;2023-08-12T00:27:06;21.20;99.90
12504;DHT22;6316;48.118;-1.690;2023-08-12T00:29:34;21.10;99.90
12504;DHT22;6316;48.118;-1.690;2023-08-12T00:32:00;21.20;99.90
12504;DHT22;6316;48.118;-1.690;2023-08-12T00:34:25;21.20;99.90
12504;DHT22;6316;48.118;-1.690;2023-08-12T00:36:51;21.10;99.90
12504;DHT22;6316;48.118;-1.690;2023-08-12T00:39:16;21.10;99.90
12504;DHT22;6316;48.118;-1.690;2023-08-12T00:41:42;21.10;99.90
12504;DHT22;6316;48.118;-1.690;2023-08-12T00:44:08;21.10;99.90
12504;DHT22;6316;48.118;-1.690;2023-08-12T00:46:34;21.10;99.90
12504;DHT22;6316;48.118;-1.690;2023-08-12T00:49:00;21.00;99.90
12504;DHT22;6316;48.118;-1.690;2023-08-12T00:51:26;21.00;99.90
12504;DHT22;6316;48.118;-1.690;2023-08-12T00:53:52;21.00;99.90
12504;DHT22;6316;48.118;-1.690;2023-08-12T00:56:19;21.00;99.90
12504;DHT22;6316;48.118;-1.690;2023-08-12T00:58:45;21.00;99.90
12504;DHT22;6316;48.118;-1.690;2023-08-12T01:01:11;20.90;99.90
12504;DHT22;6316;48.118;-1.690;2023-08-12T01:03:37;20.90;99.90
12504;DHT22;6316;48.118;-1.690;2023-08-12T01:06:03;20.90;99.90
12504;DHT22;6316;48.118;-1.690;2023-08-12T01:08:31;20.90;99.90
12504;DHT22;6316;48.118;-1.690;2023-08-12T01:11:31;20.80;99.90
12504;DHT22;6316;48.118;-1.690;2023-08-12T01:14:35;20.80;99.90
12504;DHT22;6316;48.118;-1.690;2023-08-12T01:17:06;20.80;99.90
12504;DHT22;6316;48.118;-1.690;2023-08-12T01:19:33;20.70;99.90
12504;DHT22;6316;48.118;-1.690;2023-08-12T01:22:01;20.70;99.90
12504;DHT22;6316;48.118;-1.690;2023-08-12T01:24:27;20.70;99.90
12504;DHT22;6316;48.118;-1.690;2023-08-12T01:26:59;20.70;99.90
12504;DHT22;6316;48.118;-1.690;2023-08-12T01:29:25;20.70;99.90
12504;DHT22;6316;48.118;-1.690;2023-08-12T01:32:00;20.60;99.90
12504;DHT22;6316;48.118;-1.690;2023-08-12T01:34:46;20.60;99.90
12504;DHT22;6316;48.118;-1.690;2023-08-12T01:37:20;20.60;99.90
12504;DHT22;6316;48.118;-1.690;2023-08-12T01:39:49;20.50;99.90
12504;DHT22;6316;48.118;-1.690;2023-08-12T01:42:17;20.50;99.90
12504;DHT22;6316;48.118;-1.690;2023-08-12T01:44:43;20.50;99.90
12504;DHT22;6316;48.118;-1.690;2023-08-12T01:47:09;20.50;99.90
12504;DHT22;6316;48.118;-1.690;2023-08-12T01:49:35;20.50;99.90
12504;DHT22;6316;48.118;-1.690;2023-08-12T01:52:00;20.50;99.90
12504;DHT22;6316;48.118;-1.690;2023-08-12T01:54:26;20.50;99.90
12504;DHT22;6316;48.118;-1.690;2023-08-12T01:56:52;20.50;99.90
12504;DHT22;6316;48.118;-1.690;2023-08-12T01:59:17;20.50;99.90
12504;DHT22;6316;48.118;-1.690;2023-08-12T02:01:43;20.50;99.90
12504;DHT22;6316;48.118;-1.690;2023-08-12T02:04:09;20.50;99.90
12504;DHT22;6316;48.118;-1.690;2023-08-12T02:06:34;20.40;99.90
12504;DHT22;6316;48.118;-1.690;2023-08-12T02:09:00;20.40;99.90
12504;DHT22;6316;48.118;-1.690;2023-08-12T02:11:25;20.40;99.90
12504;DHT22;6316;48.118;-1.690;2023-08-12T02:13:51;20.30;99.90
12504;DHT22;6316;48.118;-1.690;2023-08-12T02:16:17;20.30;99.90
12504;DHT22;6316;48.118;-1.690;2023-08-12T02:18:42;20.30;99.90
12504;DHT22;6316;48.118;-1.690;2023-08-12T02:21:08;20.30;99.90
12504;DHT22;6316;48.118;-1.690;2023-08-12T02:23:33;20.30;99.90
12504;DHT22;6316;48.118;-1.690;2023-08-12T02:25:59;20.20;99.90
12504;DHT22;6316;48.118;-1.690;2023-08-12T02:28:25;20.20;99.90
12504;DHT22;6316;48.118;-1.690;2023-08-12T02:30:51;20.20;99.90
12504;DHT22;6316;48.118;-1.690;2023-08-12T02:33:17;20.10;99.90
12504;DHT22;6316;48.118;-1.690;2023-08-12T02:35:42;20.10;99.90
12504;DHT22;6316;48.118;-1.690;2023-08-12T02:38:08;20.00;99.90
12504;DHT22;6316;48.118;-1.690;2023-08-12T02:40:33;20.00;99.90
12504;DHT22;6316;48.118;-1.690;2023-08-12T02:42:59;20.00;99.90
12504;DHT22;6316;48.118;-1.690;2023-08-12T02:45:25;19.90;99.90
12504;DHT22;6316;48.118;-1.690;2023-08-12T02:47:50;19.90;99.90
12504;DHT22;6316;48.118;-1.690;2023-08-12T02:50:16;19.90;99.90
12504;DHT22;6316;48.118;-1.690;2023-08-12T02:52:42;19.80;99.90
12504;DHT22;6316;48.118;-1.690;2023-08-12T02:55:08;19.80;99.90
12504;DHT22;6316;48.118;-1.690;2023-08-12T02:57:33;19.80;99.90
12504;DHT22;6316;48.118;-1.690;2023-08-12T02:59:59;19.70;99.90
12504;DHT22;6316;48.118;-1.690;2023-08-12T03:02:25;19.70;99.90
12504;DHT22;6316;48.118;-1.690;2023-08-12T03:04:50;19.70;99.90
12504;DHT22;6316;48.118;-1.690;2023-08-12T03:07:16;19.70;99.90
12504;DHT22;6316;48.118;-1.690;2023-08-12T03:09:41;19.70;99.90
12504;DHT22;6316;48.118;-1.690;2023-08-12T03:12:07;19.70;99.90
12504;DHT22;6316;48.118;-1.690;2023-08-12T03:14:33;19.70;99.90
12504;DHT22;6316;48.118;-1.690;2023-08-12T03:16:58;19.70;99.90
12504;DHT22;6316;48.118;-1.690;2023-08-12T03:19:24;19.70;99.90
12504;DHT22;6316;48.118;-1.690;2023-08-12T03:21:50;19.70;99.90
12504;DHT22;6316;48.118;-1.690;2023-08-12T03:24:15;19.60;99.90
12504;DHT22;6316;48.118;-1.690;2023-08-12T03:26:41;19.60;99.90
12504;DHT22;6316;48.118;-1.690;2023-08-12T03:29:06;19.60;99.90
12504;DHT22;6316;48.118;-1.690;2023-08-12T03:31:32;19.60;99.90
12504;DHT22;6316;48.118;-1.690;2023-08-12T03:33:58;19.50;99.90
12504;DHT22;6316;48.118;-1.690;2023-08-12T03:36:23;19.50;99.90
12504;DHT22;6316;48.118;-1.690;2023-08-12T03:38:49;19.50;99.90
12504;DHT22;6316;48.118;-1.690;2023-08-12T03:41:14;19.40;99.90
12504;DHT22;6316;48.118;-1.690;2023-08-12T03:43:40;19.40;99.90
12504;DHT22;6316;48.118;-1.690;2023-08-12T03:46:06;19.40;99.90
12504;DHT22;6316;48.118;-1.690;2023-08-12T03:48:31;19.40;99.90
12504;DHT22;6316;48.118;-1.690;2023-08-12T03:50:57;19.40;99.90
12504;DHT22;6316;48.118;-1.690;2023-08-12T03:53:22;19.40;99.90
12504;DHT22;6316;48.118;-1.690;2023-08-12T03:55:48;19.30;99.90
12504;DHT22;6316;48.118;-1.690;2023-08-12T03:58:14;19.40;99.90
12504;DHT22;6316;48.118;-1.690;2023-08-12T04:00:43;19.40;99.90
12504;DHT22;6316;48.118;-1.690;2023-08-12T04:03:08;19.40;99.90
12504;DHT22;6316;48.118;-1.690;2023-08-12T04:05:34;19.40;99.90
12504;DHT22;6316;48.118;-1.690;2023-08-12T04:08:00;19.40;99.90
12504;DHT22;6316;48.118;-1.690;2023-08-12T04:10:26;19.40;99.90
12504;DHT22;6316;48.118;-1.690;2023-08-12T04:12:51;19.30;99.90
12504;DHT22;6316;48.118;-1.690;2023-08-12T04:15:17;19.30;99.90
12504;DHT22;6316;48.118;-1.690;2023-08-12T04:17:42;19.30;99.90
12504;DHT22;6316;48.118;-1.690;2023-08-12T04:20:08;19.30;99.90
12504;DHT22;6316;48.118;-1.690;2023-08-12T04:22:34;19.30;99.90
12504;DHT22;6316;48.118;-1.690;2023-08-12T04:25:00;19.30;99.90
12504;DHT22;6316;48.118;-1.690;2023-08-12T04:27:26;19.20;99.90
12504;DHT22;6316;48.118;-1.690;2023-08-12T04:29:52;19.20;99.90
12504;DHT22;6316;48.118;-1.690;2023-08-12T04:32:17;19.20;99.90
12504;DHT22;6316;48.118;-1.690;2023-08-12T04:34:44;19.10;99.90
12504;DHT22;6316;48.118;-1.690;2023-08-12T04:37:10;19.10;99.90
12504;DHT22;6316;48.118;-1.690;2023-08-12T04:39:35;19.10;99.90
12504;DHT22;6316;48.118;-1.690;2023-08-12T04:42:01;19.10;99.90
12504;DHT22;6316;48.118;-1.690;2023-08-12T04:44:26;19.10;99.90
12504;DHT22;6316;48.118;-1.690;2023-08-12T04:46:52;19.10;99.90
12504;DHT22;6316;48.118;-1.690;2023-08-12T04:49:18;19.10;99.90
12504;DHT22;6316;48.118;-1.690;2023-08-12T04:51:43;19.10;99.90
12504;DHT22;6316;48.118;-1.690;2023-08-12T04:54:09;19.10;99.90
12504;DHT22;6316;48.118;-1.690;2023-08-12T04:56:34;19.00;99.90
12504;DHT22;6316;48.118;-1.690;2023-08-12T04:59:00;19.00;99.90
12504;DHT22;6316;48.118;-1.690;2023-08-12T05:01:26;18.90;99.90
12504;DHT22;6316;48.118;-1.690;2023-08-12T05:03:52;18.90;99.90
12504;DHT22;6316;48.118;-1.690;2023-08-12T05:06:18;18.80;99.90
12504;DHT22;6316;48.118;-1.690;2023-08-12T05:08:43;18.80;99.90
12504;DHT22;6316;48.118;-1.690;2023-08-12T05:11:09;18.70;99.90
12504;DHT22;6316;48.118;-1.690;2023-08-12T05:13:34;18.70;99.90
12504;DHT22;6316;48.118;-1.690;2023-08-12T05:16:00;18.70;99.90
12504;DHT22;6316;48.118;-1.690;2023-08-12T05:18:26;18.70;99.90
12504;DHT22;6316;48.118;-1.690;2023-08-12T05:20:54;18.70;99.90
12504;DHT22;6316;48.118;-1.690;2023-08-12T05:23:22;18.70;99.90
12504;DHT22;6316;48.118;-1.690;2023-08-12T05:25:48;18.70;99.90
12504;DHT22;6316;48.118;-1.690;2023-08-12T05:28:14;18.70;99.90
12504;DHT22;6316;48.118;-1.690;2023-08-12T05:30:39;18.70;99.90
12504;DHT22;6316;48.118;-1.690;2023-08-12T05:33:05;18.80;99.90
12504;DHT22;6316;48.118;-1.690;2023-08-12T05:35:35;18.80;99.90
12504;DHT22;6316;48.118;-1.690;2023-08-12T05:38:01;18.90;99.90
12504;DHT22;6316;48.118;-1.690;2023-08-12T05:40:27;18.90;99.90
12504;DHT22;6316;48.118;-1.690;2023-08-12T05:42:52;19.00;99.90
12504;DHT22;6316;48.118;-1.690;2023-08-12T05:45:18;19.00;99.90
12504;DHT22;6316;48.118;-1.690;2023-08-12T05:47:44;19.00;99.90
12504;DHT22;6316;48.118;-1.690;2023-08-12T05:50:09;19.00;99.90
12504;DHT22;6316;48.118;-1.690;2023-08-12T05:52:35;19.10;99.90
12504;DHT22;6316;48.118;-1.690;2023-08-12T05:55:01;19.10;99.90
12504;DHT22;6316;48.118;-1.690;2023-08-12T05:57:27;19.10;99.90
12504;DHT22;6316;48.118;-1.690;2023-08-12T05:59:53;19.20;99.90
12504;DHT22;6316;48.118;-1.690;2023-08-12T06:02:18;19.20;99.90
12504;DHT22;6316;48.118;-1.690;2023-08-12T06:04:44;19.20;99.90
12504;DHT22;6316;48.118;-1.690;2023-08-12T06:07:10;19.30;99.90
12504;DHT22;6316;48.118;-1.690;2023-08-12T06:09:35;19.40;99.90
12504;DHT22;6316;48.118;-1.690;2023-08-12T06:12:01;19.40;99.90
12504;DHT22;6316;48.118;-1.690;2023-08-12T06:14:27;19.40;99.90
12504;DHT22;6316;48.118;-1.690;2023-08-12T06:16:52;19.50;99.90
12504;DHT22;6316;48.118;-1.690;2023-08-12T06:19:18;19.50;99.90
12504;DHT22;6316;48.118;-1.690;2023-08-12T06:21:44;19.60;99.90
12504;DHT22;6316;48.118;-1.690;2023-08-12T06:24:09;19.60;99.90
12504;DHT22;6316;48.118;-1.690;2023-08-12T06:26:35;19.70;99.90
12504;DHT22;6316;48.118;-1.690;2023-08-12T06:29:00;19.70;99.90
12504;DHT22;6316;48.118;-1.690;2023-08-12T06:31:26;19.70;99.90
12504;DHT22;6316;48.118;-1.690;2023-08-12T06:33:52;19.70;99.90
12504;DHT22;6316;48.118;-1.690;2023-08-12T06:36:17;19.70;99.90
12504;DHT22;6316;48.118;-1.690;2023-08-12T06:38:43;19.70;99.90
12504;DHT22;6316;48.118;-1.690;2023-08-12T06:41:08;19.70;99.90
12504;DHT22;6316;48.118;-1.690;2023-08-12T06:43:34;19.70;99.90
12504;DHT22;6316;48.118;-1.690;2023-08-12T06:46:00;19.70;99.90
12504;DHT22;6316;48.118;-1.690;2023-08-12T06:48:26;19.70;99.90
12504;DHT22;6316;48.118;-1.690;2023-08-12T06:50:55;19.80;99.90
12504;DHT22;6316;48.118;-1.690;2023-08-12T06:53:21;19.70;99.90
12504;DHT22;6316;48.118;-1.690;2023-08-12T06:55:47;19.70;99.90
12504;DHT22;6316;48.118;-1.690;2023-08-12T06:58:14;19.80;99.90
12504;DHT22;6316;48.118;-1.690;2023-08-12T07:00:40;19.90;99.90
12504;DHT22;6316;48.118;-1.690;2023-08-12T07:03:06;20.00;99.90
12504;DHT22;6316;48.118;-1.690;2023-08-12T07:05:31;20.10;99.90
12504;DHT22;6316;48.118;-1.690;2023-08-12T07:07:57;20.20;99.90
12504;DHT22;6316;48.118;-1.690;2023-08-12T07:10:24;20.30;99.90
12504;DHT22;6316;48.118;-1.690;2023-08-12T07:12:49;20.60;99.90
12504;DHT22;6316;48.118;-1.690;2023-08-12T07:15:15;21.20;99.90
12504;DHT22;6316;48.118;-1.690;2023-08-12T07:17:41;21.80;99.90
12504;DHT22;6316;48.118;-1.690;2023-08-12T07:20:07;22.40;99.90
12504;DHT22;6316;48.118;-1.690;2023-08-12T07:22:33;22.80;99.90
12504;DHT22;6316;48.118;-1.690;2023-08-12T07:24:59;23.10;99.90
12504;DHT22;6316;48.118;-1.690;2023-08-12T07:27:27;23.80;99.90
12504;DHT22;6316;48.118;-1.690;2023-08-12T07:29:53;25.10;99.90
12504;DHT22;6316;48.118;-1.690;2023-08-12T07:32:19;26.40;99.90
12504;DHT22;6316;48.118;-1.690;2023-08-12T07:34:45;26.90;99.90
12504;DHT22;6316;48.118;-1.690;2023-08-12T07:37:11;26.90;99.90
12504;DHT22;6316;48.118;-1.690;2023-08-12T07:39:36;27.00;99.90
12504;DHT22;6316;48.118;-1.690;2023-08-12T07:42:02;27.30;99.90
12504;DHT22;6316;48.118;-1.690;2023-08-12T07:44:28;28.20;99.90
12504;DHT22;6316;48.118;-1.690;2023-08-12T07:46:54;29.30;99.90
12504;DHT22;6316;48.118;-1.690;2023-08-12T07:49:20;30.50;99.90
12504;DHT22;6316;48.118;-1.690;2023-08-12T07:51:45;31.50;99.90
12504;DHT22;6316;48.118;-1.690;2023-08-12T07:54:11;31.50;99.90
12504;DHT22;6316;48.118;-1.690;2023-08-12T07:56:37;31.30;99.90
12504;DHT22;6316;48.118;-1.690;2023-08-12T07:59:03;31.20;99.90
12504;DHT22;6316;48.118;-1.690;2023-08-12T08:01:29;31.00;99.90
12504;DHT22;6316;48.118;-1.690;2023-08-12T08:03:54;30.80;99.90
12504;DHT22;6316;48.118;-1.690;2023-08-12T08:06:20;30.70;99.90
12504;DHT22;6316;48.118;-1.690;2023-08-12T08:08:46;31.10;99.90
12504;DHT22;6316;48.118;-1.690;2023-08-12T08:11:11;31.30;99.90
12504;DHT22;6316;48.118;-1.690;2023-08-12T08:13:37;30.70;99.90
12504;DHT22;6316;48.118;-1.690;2023-08-12T08:16:02;30.40;99.90
12504;DHT22;6316;48.118;-1.690;2023-08-12T08:18:28;30.50;99.90
12504;DHT22;6316;48.118;-1.690;2023-08-12T08:20:54;30.90;99.90
12504;DHT22;6316;48.118;-1.690;2023-08-12T08:23:19;31.40;99.90
12504;DHT22;6316;48.118;-1.690;2023-08-12T08:25:45;31.20;99.90
12504;DHT22;6316;48.118;-1.690;2023-08-12T08:28:11;30.90;99.90
12504;DHT22;6316;48.118;-1.690;2023-08-12T08:30:37;30.80;99.90
12504;DHT22;6316;48.118;-1.690;2023-08-12T08:33:02;30.70;99.90
12504;DHT22;6316;48.118;-1.690;2023-08-12T08:35:29;30.90;99.90
12504;DHT22;6316;48.118;-1.690;2023-08-12T08:37:54;31.30;99.90
12504;DHT22;6316;48.118;-1.690;2023-08-12T08:40:20;31.90;99.90
12504;DHT22;6316;48.118;-1.690;2023-08-12T08:42:47;32.40;99.90
12504;DHT22;6316;48.118;-1.690;2023-08-12T08:45:16;32.80;99.90
12504;DHT22;6316;48.118;-1.690;2023-08-12T08:47:42;33.00;99.90
12504;DHT22;6316;48.118;-1.690;2023-08-12T08:50:09;33.10;99.90
12504;DHT22;6316;48.118;-1.690;2023-08-12T08:52:36;33.10;99.90
12504;DHT22;6316;48.118;-1.690;2023-08-12T08:55:04;33.20;99.90
12504;DHT22;6316;48.118;-1.690;2023-08-12T08:57:30;33.20;99.90
12504;DHT22;6316;48.118;-1.690;2023-08-12T08:59:55;33.10;99.90
12504;DHT22;6316;48.118;-1.690;2023-08-12T09:02:21;32.80;99.90
12504;DHT22;6316;48.118;-1.690;2023-08-12T09:04:48;32.50;99.90
12504;DHT22;6316;48.118;-1.690;2023-08-12T09:07:15;32.40;99.90
12504;DHT22;6316;48.118;-1.690;2023-08-12T09:09:45;32.20;99.90
12504;DHT22;6316;48.118;-1.690;2023-08-12T09:12:15;32.00;99.90
12504;DHT22;6316;48.118;-1.690;2023-08-12T09:14:42;31.60;99.90
12504;DHT22;6316;48.118;-1.690;2023-08-12T09:17:09;31.30;99.90
12504;DHT22;6316;48.118;-1.690;2023-08-12T09:19:35;31.00;99.90
12504;DHT22;6316;48.118;-1.690;2023-08-12T09:22:03;30.60;99.90
12504;DHT22;6316;48.118;-1.690;2023-08-12T09:24:28;30.20;99.90
12504;DHT22;6316;48.118;-1.690;2023-08-12T09:26:55;29.80;99.90
12504;DHT22;6316;48.118;-1.690;2023-08-12T09:29:30;29.50;99.90
12504;DHT22;6316;48.118;-1.690;2023-08-12T09:32:05;29.20;99.90
12504;DHT22;6316;48.118;-1.690;2023-08-12T09:34:32;28.70;99.90
12504;DHT22;6316;48.118;-1.690;2023-08-12T09:36:58;28.20;99.90
12504;DHT22;6316;48.118;-1.690;2023-08-12T09:39:24;27.90;99.90
12504;DHT22;6316;48.118;-1.690;2023-08-12T09:41:51;27.60;99.90
12504;DHT22;6316;48.118;-1.690;2023-08-12T09:44:17;27.30;99.90
12504;DHT22;6316;48.118;-1.690;2023-08-12T09:46:42;27.00;99.90
12504;DHT22;6316;48.118;-1.690;2023-08-12T09:49:08;26.70;99.90
12504;DHT22;6316;48.118;-1.690;2023-08-12T09:51:35;26.50;99.90
12504;DHT22;6316;48.118;-1.690;2023-08-12T09:54:02;26.30;99.90
12504;DHT22;6316;48.118;-1.690;2023-08-12T09:56:33;26.20;99.90
12504;DHT22;6316;48.118;-1.690;2023-08-12T09:59:04;26.10;99.90
12504;DHT22;6316;48.118;-1.690;2023-08-12T10:01:30;26.20;99.90
12504;DHT22;6316;48.118;-1.690;2023-08-12T10:03:56;26.10;99.90
12504;DHT22;6316;48.118;-1.690;2023-08-12T10:06:23;26.10;99.90
12504;DHT22;6316;48.118;-1.690;2023-08-12T10:08:49;26.00;99.90
12504;DHT22;6316;48.118;-1.690;2023-08-12T10:11:16;25.90;99.90
12504;DHT22;6316;48.118;-1.690;2023-08-12T10:13:42;25.80;99.90
12504;DHT22;6316;48.118;-1.690;2023-08-12T10:16:11;25.80;99.90
12504;DHT22;6316;48.118;-1.690;2023-08-12T10:18:42;25.80;99.90
12504;DHT22;6316;48.118;-1.690;2023-08-12T10:21:10;25.80;99.90
12504;DHT22;6316;48.118;-1.690;2023-08-12T10:23:41;25.80;99.90
12504;DHT22;6316;48.118;-1.690;2023-08-12T10:26:06;25.80;99.90
12504;DHT22;6316;48.118;-1.690;2023-08-12T10:28:34;25.80;99.90
12504;DHT22;6316;48.118;-1.690;2023-08-12T10:31:06;25.70;99.90
12504;DHT22;6316;48.118;-1.690;2023-08-12T10:33:39;25.80;99.90
12504;DHT22;6316;48.118;-1.690;2023-08-12T10:36:05;25.80;99.90
12504;DHT22;6316;48.118;-1.690;2023-08-12T10:38:32;25.90;99.90
12504;DHT22;6316;48.118;-1.690;2023-08-12T10:41:20;25.90;99.90
12504;DHT22;6316;48.118;-1.690;2023-08-12T10:44:09;25.90;99.90
12504;DHT22;6316;48.118;-1.690;2023-08-12T10:46:36;26.00;99.90
12504;DHT22;6316;48.118;-1.690;2023-08-12T10:49:07;26.00;99.90
12504;DHT22;6316;48.118;-1.690;2023-08-12T10:51:48;26.10;99.90
12504;DHT22;6316;48.118;-1.690;2023-08-12T10:54:15;26.10;99.90
12504;DHT22;6316;48.118;-1.690;2023-08-12T11:02:31;26.00;99.90
12504;DHT22;6316;48.118;-1.690;2023-08-12T11:05:03;25.90;99.90
12504;DHT22;6316;48.118;-1.690;2023-08-12T11:09:59;25.80;99.90
12504;DHT22;6316;48.118;-1.690;2023-08-12T11:12:30;25.80;99.90
12504;DHT22;6316;48.118;-1.690;2023-08-12T11:14:58;25.80;99.90
12504;DHT22;6316;48.118;-1.690;2023-08-12T11:17:50;25.80;99.90
12504;DHT22;6316;48.118;-1.690;2023-08-12T11:20:15;25.80;99.90
12504;DHT22;6316;48.118;-1.690;2023-08-12T11:22:42;25.80;99.90
12504;DHT22;6316;48.118;-1.690;2023-08-12T11:25:10;25.80;99.90
12504;DHT22;6316;48.118;-1.690;2023-08-12T11:30:03;25.70;99.90
12504;DHT22;6316;48.118;-1.690;2023-08-12T11:32:29;25.60;99.90
12504;DHT22;6316;48.118;-1.690;2023-08-12T11:34:55;25.60;99.90
12504;DHT22;6316;48.118;-1.690;2023-08-12T11:37:21;25.60;99.90
12504;DHT22;6316;48.118;-1.690;2023-08-12T11:39:46;25.60;99.90
12504;DHT22;6316;48.118;-1.690;2023-08-12T11:42:12;25.60;99.90
12504;DHT22;6316;48.118;-1.690;2023-08-12T11:44:40;25.60;99.90
12504;DHT22;6316;48.118;-1.690;2023-08-12T11:47:06;25.60;99.90
12504;DHT22;6316;48.118;-1.690;2023-08-12T11:49:32;25.60;99.90
12504;DHT22;6316;48.118;-1.690;2023-08-12T11:51:58;25.50;99.90
12504;DHT22;6316;48.118;-1.690;2023-08-12T11:54:24;25.40;99.90
12504;DHT22;6316;48.118;-1.690;2023-08-12T11:56:50;25.40;99.90
12504;DHT22;6316;48.118;-1.690;2023-08-12T11:59:15;25.40;99.90
12504;DHT22;6316;48.118;-1.690;2023-08-12T12:01:46;25.50;99.90
12504;DHT22;6316;48.118;-1.690;2023-08-12T12:04:14;25.50;99.90
12504;DHT22;6316;48.118;-1.690;2023-08-12T12:06:40;25.60;99.90
12504;DHT22;6316;48.118;-1.690;2023-08-12T12:09:07;25.60;99.90
12504;DHT22;6316;48.118;-1.690;2023-08-12T12:11:36;25.60;99.90
12504;DHT22;6316;48.118;-1.690;2023-08-12T12:14:06;25.70;99.90
12504;DHT22;6316;48.118;-1.690;2023-08-12T12:16:47;25.70;99.90
12504;DHT22;6316;48.118;-1.690;2023-08-12T12:19:20;25.80;99.90
12504;DHT22;6316;48.118;-1.690;2023-08-12T12:21:49;25.90;99.90
12504;DHT22;6316;48.118;-1.690;2023-08-12T12:24:15;26.10;99.90
12504;DHT22;6316;48.118;-1.690;2023-08-12T12:26:41;26.10;99.90
12504;DHT22;6316;48.118;-1.690;2023-08-12T12:29:07;26.20;99.90
12504;DHT22;6316;48.118;-1.690;2023-08-12T12:31:35;26.30;99.90
12504;DHT22;6316;48.118;-1.690;2023-08-12T12:34:05;26.30;99.90
12504;DHT22;6316;48.118;-1.690;2023-08-12T12:36:35;26.40;99.90
12504;DHT22;6316;48.118;-1.690;2023-08-12T12:39:02;26.30;99.90
12504;DHT22;6316;48.118;-1.690;2023-08-12T12:41:28;26.30;99.90
12504;DHT22;6316;48.118;-1.690;2023-08-12T12:43:53;26.30;99.90
12504;DHT22;6316;48.118;-1.690;2023-08-12T12:46:19;26.30;99.90
12504;DHT22;6316;48.118;-1.690;2023-08-12T12:48:45;26.30;99.90
12504;DHT22;6316;48.118;-1.690;2023-08-12T12:51:12;26.40;99.90
12504;DHT22;6316;48.118;-1.690;2023-08-12T12:53:38;26.50;99.90
12504;DHT22;6316;48.118;-1.690;2023-08-12T12:56:04;26.60;99.90
12504;DHT22;6316;48.118;-1.690;2023-08-12T12:58:31;26.70;99.90
12504;DHT22;6316;48.118;-1.690;2023-08-12T13:00:57;26.70;99.90
12504;DHT22;6316;48.118;-1.690;2023-08-12T13:03:23;26.70;99.90
12504;DHT22;6316;48.118;-1.690;2023-08-12T13:05:49;26.70;99.90
12504;DHT22;6316;48.118;-1.690;2023-08-12T13:08:15;26.70;99.90
12504;DHT22;6316;48.118;-1.690;2023-08-12T13:10:41;26.70;99.90
12504;DHT22;6316;48.118;-1.690;2023-08-12T13:13:06;26.70;99.90
12504;DHT22;6316;48.118;-1.690;2023-08-12T13:15:32;26.70;99.90
12504;DHT22;6316;48.118;-1.690;2023-08-12T13:17:58;26.80;99.90
12504;DHT22;6316;48.118;-1.690;2023-08-12T13:20:23;26.80;99.90
12504;DHT22;6316;48.118;-1.690;2023-08-12T13:22:49;26.90;99.90
12504;DHT22;6316;48.118;-1.690;2023-08-12T13:25:15;26.90;99.90
12504;DHT22;6316;48.118;-1.690;2023-08-12T13:27:42;26.80;99.90
12504;DHT22;6316;48.118;-1.690;2023-08-12T13:30:07;26.60;99.90
12504;DHT22;6316;48.118;-1.690;2023-08-12T13:32:33;26.50;99.90
12504;DHT22;6316;48.118;-1.690;2023-08-12T13:34:59;26.40;99.90
12504;DHT22;6316;48.118;-1.690;2023-08-12T13:37:24;26.40;99.90
12504;DHT22;6316;48.118;-1.690;2023-08-12T13:39:50;26.40;99.90
12504;DHT22;6316;48.118;-1.690;2023-08-12T13:42:16;26.40;99.90
12504;DHT22;6316;48.118;-1.690;2023-08-12T13:44:41;26.30;99.90
12504;DHT22;6316;48.118;-1.690;2023-08-12T13:47:07;26.20;99.90
12504;DHT22;6316;48.118;-1.690;2023-08-12T13:49:32;26.30;99.90
12504;DHT22;6316;48.118;-1.690;2023-08-12T13:51:58;26.30;99.90
12504;DHT22;6316;48.118;-1.690;2023-08-12T13:54:24;26.30;99.90
12504;DHT22;6316;48.118;-1.690;2023-08-12T13:56:50;26.40;99.90
12504;DHT22;6316;48.118;-1.690;2023-08-12T13:59:16;26.40;99.90
12504;DHT22;6316;48.118;-1.690;2023-08-12T14:01:41;26.40;99.90
12504;DHT22;6316;48.118;-1.690;2023-08-12T14:04:07;26.40;99.90
12504;DHT22;6316;48.118;-1.690;2023-08-12T14:06:33;26.50;99.90
12504;DHT22;6316;48.118;-1.690;2023-08-12T14:08:58;26.50;99.90
12504;DHT22;6316;48.118;-1.690;2023-08-12T14:11:24;26.50;99.90
12504;DHT22;6316;48.118;-1.690;2023-08-12T14:13:49;26.60;99.90
12504;DHT22;6316;48.118;-1.690;2023-08-12T14:16:15;26.50;99.90
12504;DHT22;6316;48.118;-1.690;2023-08-12T14:18:41;26.50;99.90
12504;DHT22;6316;48.118;-1.690;2023-08-12T14:21:06;26.50;99.90
12504;DHT22;6316;48.118;-1.690;2023-08-12T14:23:32;26.50;99.90
12504;DHT22;6316;48.118;-1.690;2023-08-12T14:25:58;26.40;99.90
12504;DHT22;6316;48.118;-1.690;2023-08-12T14:28:23;26.40;99.90
12504;DHT22;6316;48.118;-1.690;2023-08-12T14:30:49;26.40;99.90
12504;DHT22;6316;48.118;-1.690;2023-08-12T14:33:14;26.40;99.90
12504;DHT22;6316;48.118;-1.690;2023-08-12T14:35:40;26.40;99.90
12504;DHT22;6316;48.118;-1.690;2023-08-12T14:38:06;26.40;99.90
12504;DHT22;6316;48.118;-1.690;2023-08-12T14:40:31;26.40;99.90
12504;DHT22;6316;48.118;-1.690;2023-08-12T14:42:57;26.50;99.90
12504;DHT22;6316;48.118;-1.690;2023-08-12T14:45:22;26.50;99.90
12504;DHT22;6316;48.118;-1.690;2023-08-12T14:47:48;26.50;99.90
12504;DHT22;6316;48.118;-1.690;2023-08-12T14:50:14;26.50;99.90
12504;DHT22;6316;48.118;-1.690;2023-08-12T14:52:39;26.40;99.90
12504;DHT22;6316;48.118;-1.690;2023-08-12T14:55:05;26.40;99.90
12504;DHT22;6316;48.118;-1.690;2023-08-12T14:57:31;26.40;99.90
12504;DHT22;6316;48.118;-1.690;2023-08-12T14:59:57;26.40;99.90
12504;DHT22;6316;48.118;-1.690;2023-08-12T15:02:23;26.40;99.90
12504;DHT22;6316;48.118;-1.690;2023-08-12T15:04:49;26.40;99.90
12504;DHT22;6316;48.118;-1.690;2023-08-12T15:07:15;26.40;99.90
12504;DHT22;6316;48.118;-1.690;2023-08-12T15:09:42;26.30;99.90
12504;DHT22;6316;48.118;-1.690;2023-08-12T15:12:08;26.30;99.90
12504;DHT22;6316;48.118;-1.690;2023-08-12T15:14:33;26.30;99.90
12504;DHT22;6316;48.118;-1.690;2023-08-12T15:16:59;26.20;99.90
12504;DHT22;6316;48.118;-1.690;2023-08-12T15:19:25;26.10;99.90
12504;DHT22;6316;48.118;-1.690;2023-08-12T15:21:50;26.10;99.90
12504;DHT22;6316;48.118;-1.690;2023-08-12T15:24:16;26.00;99.90
12504;DHT22;6316;48.118;-1.690;2023-08-12T15:26:42;25.90;99.90
12504;DHT22;6316;48.118;-1.690;2023-08-12T15:29:08;25.90;99.90
12504;DHT22;6316;48.118;-1.690;2023-08-12T15:31:34;25.90;99.90
12504;DHT22;6316;48.118;-1.690;2023-08-12T15:34:01;26.00;99.90
12504;DHT22;6316;48.118;-1.690;2023-08-12T15:36:26;26.00;99.90